PGT1824 LTAI-OLBA
Flight info
| Callsign | PGT1824 |
|---|---|
| Flight time | 0h 55m |
| Altitude | 33000 |
| Route | KULOL UN135 VESAR L620 BALMA |
| Aircraft | A320/M-SDE3FGHIRWY/LB1 |
Departure
| Time | 2026-05-04 22:41 |
|---|---|
| Airport | Antalya International Airport (LTAI) |
Arrival
| Time | 2026-05-04 23:36 |
|---|---|
| Airport | Beirut Rafic Hariri International Airport (OLBA) |
| Time | Latitude | Longitude | Altitude | Speed | Heading |
|---|---|---|---|---|---|
| 2026-05-04 22:06 | 36.89704 | 30.80156 | 176 ft | 0 kts | 352° |
| 2026-05-04 22:24 | 36.89703 | 30.80156 | 176 ft | 1 kts | 352° |
| 2026-05-04 22:24 | 36.89687 | 30.80159 | 176 ft | 3 kts | 348° |
| 2026-05-04 22:24 | 36.89668 | 30.80165 | 176 ft | 3 kts | 343° |
| 2026-05-04 22:25 | 36.89648 | 30.80173 | 176 ft | 3 kts | 339° |
| 2026-05-04 22:25 | 36.89629 | 30.80182 | 176 ft | 3 kts | 343° |
| 2026-05-04 22:25 | 36.89611 | 30.80187 | 176 ft | 3 kts | 24° |
| 2026-05-04 22:25 | 36.89604 | 30.80181 | 176 ft | 1 kts | 65° |
| 2026-05-04 22:26 | 36.89599 | 30.80161 | 176 ft | 3 kts | 97° |
| 2026-05-04 22:26 | 36.89604 | 30.80138 | 176 ft | 3 kts | 105° |
| 2026-05-04 22:26 | 36.89607 | 30.80126 | 176 ft | 0 kts | 97° |
| 2026-05-04 22:34 | 36.89605 | 30.80142 | 176 ft | 7 kts | 97° |
| 2026-05-04 22:34 | 36.89599 | 30.80201 | 176 ft | 6 kts | 97° |
| 2026-05-04 22:34 | 36.89598 | 30.80209 | 176 ft | 6 kts | 97° |
| 2026-05-04 22:34 | 36.89597 | 30.80224 | 176 ft | 6 kts | 97° |
| 2026-05-04 22:35 | 36.89593 | 30.80267 | 176 ft | 4 kts | 97° |
| 2026-05-04 22:35 | 36.89591 | 30.80303 | 176 ft | 6 kts | 91° |
| 2026-05-04 22:35 | 36.89586 | 30.80381 | 176 ft | 11 kts | 96° |
| 2026-05-04 22:35 | 36.89577 | 30.80475 | 176 ft | 10 kts | 97° |
| 2026-05-04 22:36 | 36.89569 | 30.80583 | 176 ft | 14 kts | 96° |
| 2026-05-04 22:36 | 36.89533 | 30.80678 | 176 ft | 12 kts | 157° |
| 2026-05-04 22:36 | 36.89456 | 30.80673 | 176 ft | 11 kts | 187° |
| 2026-05-04 22:36 | 36.89333 | 30.80656 | 176 ft | 25 kts | 186° |
| 2026-05-04 22:37 | 36.89116 | 30.80625 | 176 ft | 36 kts | 187° |
| 2026-05-04 22:37 | 36.88863 | 30.80588 | 176 ft | 37 kts | 187° |
| 2026-05-04 22:37 | 36.88612 | 30.80556 | 176 ft | 37 kts | 186° |
| 2026-05-04 22:37 | 36.88351 | 30.80521 | 176 ft | 35 kts | 186° |
| 2026-05-04 22:38 | 36.88204 | 30.80500 | 176 ft | 16 kts | 185° |
| 2026-05-04 22:38 | 36.88143 | 30.80580 | 176 ft | 13 kts | 98° |
| 2026-05-04 22:38 | 36.88141 | 30.80602 | 176 ft | 0 kts | 96° |
| 2026-05-04 22:39 | 36.88140 | 30.80614 | 175 ft | 6 kts | 96° |
| 2026-05-04 22:39 | 36.88132 | 30.80700 | 175 ft | 8 kts | 96° |
| 2026-05-04 22:40 | 36.88147 | 30.80729 | 176 ft | 3 kts | 9° |
| 2026-05-04 22:40 | 36.88153 | 30.80730 | 176 ft | 2 kts | 9° |
| 2026-05-04 22:40 | 36.88423 | 30.80766 | 177 ft | 76 kts | 6° |
| 2026-05-04 22:40 | 36.89146 | 30.80867 | 176 ft | 131 kts | 5° |
| 2026-05-04 22:41 | 36.90198 | 30.80979 | 255 ft | 167 kts | 8° |
| 2026-05-04 22:41 | 36.91355 | 30.81181 | 921 ft | 168 kts | 6° |
| 2026-05-04 22:41 | 36.92505 | 30.81394 | 1818 ft | 166 kts | 7° |
| 2026-05-04 22:41 | 36.93633 | 30.81640 | 2512 ft | 166 kts | 14° |
| 2026-05-04 22:42 | 36.94588 | 30.82574 | 2816 ft | 194 kts | 61° |
| 2026-05-04 22:42 | 36.94721 | 30.84351 | 3086 ft | 226 kts | 104° |
| 2026-05-04 22:42 | 36.94031 | 30.86240 | 3486 ft | 253 kts | 118° |
| 2026-05-04 22:42 | 36.93071 | 30.88185 | 4056 ft | 269 kts | 120° |
| 2026-05-04 22:43 | 36.92088 | 30.90198 | 4926 ft | 273 kts | 118° |
| 2026-05-04 22:43 | 36.91162 | 30.92284 | 5832 ft | 276 kts | 116° |
| 2026-05-04 22:43 | 36.90299 | 30.94438 | 6714 ft | 279 kts | 114° |
| 2026-05-04 22:43 | 36.89484 | 30.96651 | 7527 ft | 283 kts | 112° |
| 2026-05-04 22:44 | 36.88692 | 30.98925 | 8330 ft | 288 kts | 112° |
| 2026-05-04 22:44 | 36.87908 | 31.01244 | 9140 ft | 292 kts | 112° |
| 2026-05-04 22:44 | 36.87118 | 31.03610 | 9790 ft | 299 kts | 112° |
| 2026-05-04 22:44 | 36.86319 | 31.06009 | 9956 ft | 299 kts | 112° |
| 2026-05-04 22:45 | 36.85513 | 31.08429 | 9994 ft | 312 kts | 112° |
| 2026-05-04 22:45 | 36.83828 | 31.13479 | 9980 ft | 312 kts | 112° |
| 2026-05-04 22:45 | 36.82979 | 31.16011 | 10377 ft | 322 kts | 113° |
| 2026-05-04 22:46 | 36.82081 | 31.18680 | 10648 ft | 343 kts | 113° |
| 2026-05-04 22:46 | 36.81141 | 31.21464 | 11256 ft | 351 kts | 113° |
| 2026-05-04 22:46 | 36.80186 | 31.24289 | 11948 ft | 356 kts | 113° |
| 2026-05-04 22:46 | 36.79230 | 31.27123 | 12636 ft | 361 kts | 113° |
| 2026-05-04 22:47 | 36.78248 | 31.30030 | 13328 ft | 366 kts | 113° |
| 2026-05-04 22:47 | 36.77255 | 31.32974 | 13984 ft | 371 kts | 113° |
| 2026-05-04 22:47 | 36.76246 | 31.35957 | 14602 ft | 375 kts | 114° |
| 2026-05-04 22:47 | 36.75229 | 31.38961 | 15220 ft | 378 kts | 114° |
| 2026-05-04 22:48 | 36.74201 | 31.41992 | 15841 ft | 382 kts | 114° |
| 2026-05-04 22:48 | 36.73162 | 31.45054 | 16464 ft | 385 kts | 114° |
| 2026-05-04 22:48 | 36.72112 | 31.48146 | 17080 ft | 389 kts | 114° |
| 2026-05-04 22:48 | 36.71053 | 31.51261 | 17688 ft | 392 kts | 114° |
| 2026-05-04 22:49 | 36.69986 | 31.54400 | 18285 ft | 396 kts | 114° |
| 2026-05-04 22:49 | 36.68907 | 31.57573 | 18811 ft | 399 kts | 114° |
| 2026-05-04 22:49 | 36.67828 | 31.60772 | 19343 ft | 402 kts | 113° |
| 2026-05-04 22:49 | 36.66797 | 31.64025 | 19876 ft | 405 kts | 112° |
| 2026-05-04 22:50 | 36.65800 | 31.67325 | 20420 ft | 409 kts | 111° |
| 2026-05-04 22:50 | 36.64814 | 31.70660 | 20970 ft | 412 kts | 111° |
| 2026-05-04 22:50 | 36.63822 | 31.74012 | 21519 ft | 415 kts | 111° |
| 2026-05-04 22:50 | 36.62812 | 31.77390 | 22059 ft | 418 kts | 112° |
| 2026-05-04 22:51 | 36.61785 | 31.80786 | 22578 ft | 420 kts | 112° |
| 2026-05-04 22:51 | 36.60746 | 31.84202 | 23099 ft | 423 kts | 112° |
| 2026-05-04 22:51 | 36.59699 | 31.87635 | 23584 ft | 426 kts | 112° |
| 2026-05-04 22:51 | 36.58641 | 31.91091 | 23972 ft | 429 kts | 112° |
| 2026-05-04 22:52 | 36.57571 | 31.94572 | 24351 ft | 432 kts | 112° |
| 2026-05-04 22:52 | 36.56492 | 31.98078 | 24733 ft | 435 kts | 113° |
| 2026-05-04 22:52 | 36.55406 | 32.01600 | 25101 ft | 438 kts | 113° |
| 2026-05-04 22:52 | 36.54313 | 32.05156 | 25452 ft | 441 kts | 113° |
| 2026-05-04 22:53 | 36.53214 | 32.08730 | 25789 ft | 444 kts | 113° |
| 2026-05-04 22:53 | 36.52100 | 32.12326 | 26144 ft | 448 kts | 114° |
| 2026-05-04 22:53 | 36.50972 | 32.15945 | 26482 ft | 451 kts | 114° |
| 2026-05-04 22:53 | 36.49834 | 32.19589 | 26812 ft | 454 kts | 114° |
| 2026-05-04 22:54 | 36.48685 | 32.23263 | 27128 ft | 457 kts | 114° |
| 2026-05-04 22:54 | 36.47530 | 32.26956 | 27437 ft | 460 kts | 114° |
| 2026-05-04 22:54 | 36.46368 | 32.30669 | 27743 ft | 464 kts | 114° |
| 2026-05-04 22:54 | 36.45193 | 32.34417 | 28044 ft | 467 kts | 114° |
| 2026-05-04 22:55 | 36.44013 | 32.38184 | 28341 ft | 470 kts | 114° |
| 2026-05-04 22:55 | 36.42839 | 32.41932 | 28618 ft | 473 kts | 115° |
| 2026-05-04 22:55 | 36.41641 | 32.45751 | 28891 ft | 476 kts | 115° |
| 2026-05-04 22:55 | 36.40432 | 32.49592 | 29181 ft | 480 kts | 115° |
| 2026-05-04 22:56 | 36.39209 | 32.53470 | 29426 ft | 483 kts | 115° |
| 2026-05-04 22:56 | 36.37976 | 32.57367 | 29678 ft | 486 kts | 115° |
| 2026-05-04 22:56 | 36.36737 | 32.61280 | 29917 ft | 489 kts | 115° |
| 2026-05-04 22:56 | 36.35489 | 32.65220 | 30119 ft | 492 kts | 116° |
| 2026-05-04 22:57 | 36.34237 | 32.69175 | 30317 ft | 494 kts | 116° |
| 2026-05-04 22:57 | 36.32981 | 32.73142 | 30508 ft | 496 kts | 116° |
| 2026-05-04 22:57 | 36.31720 | 32.77134 | 30716 ft | 497 kts | 116° |
| 2026-05-04 22:57 | 36.30459 | 32.81126 | 30909 ft | 499 kts | 116° |
| 2026-05-04 22:58 | 36.29189 | 32.85141 | 31142 ft | 500 kts | 116° |
| 2026-05-04 22:58 | 36.27923 | 32.89145 | 31437 ft | 499 kts | 116° |
| 2026-05-04 22:58 | 36.26657 | 32.93137 | 31715 ft | 498 kts | 116° |
| 2026-05-04 22:58 | 36.25388 | 32.97129 | 32002 ft | 497 kts | 116° |
| 2026-05-04 22:59 | 36.24121 | 33.01104 | 32302 ft | 496 kts | 116° |
| 2026-05-04 22:59 | 36.22870 | 33.05026 | 32575 ft | 496 kts | 116° |
| 2026-05-04 22:59 | 36.21608 | 33.08988 | 32835 ft | 495 kts | 116° |
| 2026-05-04 22:59 | 36.20344 | 33.12950 | 32906 ft | 491 kts | 116° |
| 2026-05-04 23:00 | 36.17854 | 33.20736 | 32909 ft | 484 kts | 116° |
| 2026-05-04 23:00 | 36.15362 | 33.28466 | 32908 ft | 483 kts | 116° |
| 2026-05-04 23:01 | 36.12876 | 33.36181 | 32905 ft | 483 kts | 115° |
| 2026-05-04 23:01 | 36.10383 | 33.43915 | 32901 ft | 484 kts | 117° |
| 2026-05-04 23:02 | 36.07889 | 33.51638 | 32898 ft | 484 kts | 117° |
| 2026-05-04 23:02 | 36.05386 | 33.59352 | 32898 ft | 483 kts | 117° |
| 2026-05-04 23:03 | 36.02875 | 33.67058 | 32900 ft | 483 kts | 117° |
| 2026-05-04 23:03 | 36.00364 | 33.74750 | 32894 ft | 482 kts | 118° |
| 2026-05-04 23:04 | 35.97857 | 33.82422 | 32881 ft | 481 kts | 118° |
| 2026-05-04 23:04 | 35.95350 | 33.90083 | 32876 ft | 481 kts | 118° |
| 2026-05-04 23:05 | 35.92592 | 33.97532 | 32873 ft | 470 kts | 130° |
| 2026-05-04 23:05 | 35.90684 | 34.00743 | 32871 ft | 459 kts | 139° |
| 2026-05-04 23:05 | 35.88453 | 34.03495 | 32866 ft | 449 kts | 148° |
| 2026-05-04 23:06 | 35.83359 | 34.07690 | 32863 ft | 438 kts | 158° |
| 2026-05-04 23:06 | 35.78136 | 34.11541 | 32862 ft | 438 kts | 158° |
| 2026-05-04 23:07 | 35.72903 | 34.15395 | 32857 ft | 438 kts | 158° |
| 2026-05-04 23:07 | 35.67662 | 34.19252 | 32857 ft | 439 kts | 158° |
| 2026-05-04 23:08 | 35.62408 | 34.23089 | 32859 ft | 439 kts | 158° |
| 2026-05-04 23:08 | 35.57146 | 34.26910 | 32862 ft | 440 kts | 158° |
| 2026-05-04 23:09 | 35.51911 | 34.30711 | 32859 ft | 440 kts | 158° |
| 2026-05-04 23:09 | 35.46643 | 34.34544 | 32860 ft | 441 kts | 158° |
| 2026-05-04 23:10 | 35.41368 | 34.38374 | 32861 ft | 441 kts | 159° |
| 2026-05-04 23:10 | 35.36077 | 34.42196 | 32862 ft | 441 kts | 159° |
| 2026-05-04 23:11 | 35.30782 | 34.46018 | 32864 ft | 442 kts | 159° |
| 2026-05-04 23:11 | 35.25480 | 34.49853 | 32865 ft | 443 kts | 159° |
| 2026-05-04 23:12 | 35.20166 | 34.53696 | 32870 ft | 444 kts | 159° |
| 2026-05-04 23:12 | 35.14845 | 34.57531 | 32870 ft | 444 kts | 159° |
| 2026-05-04 23:13 | 35.10416 | 34.60715 | 32872 ft | 444 kts | 159° |
| 2026-05-04 23:13 | 35.05081 | 34.64533 | 32875 ft | 444 kts | 159° |
| 2026-05-04 23:14 | 34.99745 | 34.68352 | 32878 ft | 445 kts | 159° |
| 2026-05-04 23:14 | 34.94411 | 34.72177 | 32753 ft | 446 kts | 159° |
| 2026-05-04 23:15 | 34.91732 | 34.74096 | 31810 ft | 451 kts | 159° |
| 2026-05-04 23:15 | 34.88987 | 34.76049 | 30701 ft | 459 kts | 159° |
| 2026-05-04 23:15 | 34.86282 | 34.77992 | 30397 ft | 446 kts | 159° |
| 2026-05-04 23:15 | 34.83620 | 34.79908 | 29733 ft | 443 kts | 159° |
| 2026-05-04 23:16 | 34.80972 | 34.81808 | 28928 ft | 441 kts | 159° |
| 2026-05-04 23:16 | 34.78332 | 34.83696 | 28139 ft | 439 kts | 159° |
| 2026-05-04 23:16 | 34.75704 | 34.85570 | 27366 ft | 437 kts | 159° |
| 2026-05-04 23:16 | 34.73083 | 34.87433 | 26611 ft | 435 kts | 159° |
| 2026-05-04 23:17 | 34.70473 | 34.89285 | 25882 ft | 434 kts | 159° |
| 2026-05-04 23:17 | 34.67872 | 34.91132 | 25167 ft | 432 kts | 159° |
| 2026-05-04 23:17 | 34.65285 | 34.92971 | 24473 ft | 430 kts | 159° |
| 2026-05-04 23:17 | 34.62713 | 34.94801 | 23797 ft | 428 kts | 159° |
| 2026-05-04 23:18 | 34.60153 | 34.96619 | 23058 ft | 426 kts | 159° |
| 2026-05-04 23:18 | 34.57601 | 34.98427 | 22266 ft | 424 kts | 158° |
| 2026-05-04 23:18 | 34.55057 | 35.00229 | 21498 ft | 423 kts | 158° |
| 2026-05-04 23:18 | 34.52521 | 35.02026 | 20749 ft | 421 kts | 158° |
| 2026-05-04 23:19 | 34.49996 | 35.03815 | 20021 ft | 419 kts | 158° |
| 2026-05-04 23:19 | 34.47480 | 35.05587 | 19300 ft | 417 kts | 159° |
| 2026-05-04 23:19 | 34.44953 | 35.07296 | 18611 ft | 414 kts | 160° |
| 2026-05-04 23:19 | 34.42456 | 35.08923 | 17895 ft | 412 kts | 160° |
| 2026-05-04 23:20 | 34.39925 | 35.10539 | 17110 ft | 411 kts | 160° |
| 2026-05-04 23:20 | 34.37399 | 35.12144 | 16359 ft | 410 kts | 160° |
| 2026-05-04 23:20 | 34.34877 | 35.13752 | 15620 ft | 410 kts | 159° |
| 2026-05-04 23:20 | 34.32360 | 35.15365 | 14896 ft | 409 kts | 159° |
| 2026-05-04 23:21 | 34.29851 | 35.16982 | 14190 ft | 409 kts | 158° |
| 2026-05-04 23:21 | 34.27340 | 35.18608 | 13462 ft | 408 kts | 158° |
| 2026-05-04 23:21 | 34.24844 | 35.20227 | 12693 ft | 407 kts | 157° |
| 2026-05-04 23:21 | 34.22359 | 35.21838 | 11946 ft | 404 kts | 157° |
| 2026-05-04 23:22 | 34.19893 | 35.23436 | 11211 ft | 401 kts | 156° |
| 2026-05-04 23:22 | 34.17444 | 35.25023 | 10492 ft | 397 kts | 156° |
| 2026-05-04 23:22 | 34.16662 | 35.25529 | 10267 ft | 396 kts | 156° |
| 2026-05-04 23:22 | 34.16011 | 35.25950 | 10073 ft | 394 kts | 156° |
| 2026-05-04 23:23 | 34.13532 | 35.27558 | 9292 ft | 390 kts | 156° |
| 2026-05-04 23:23 | 34.11157 | 35.29091 | 8534 ft | 384 kts | 156° |
| 2026-05-04 23:23 | 34.08728 | 35.30287 | 7800 ft | 372 kts | 171° |
| 2026-05-04 23:23 | 34.06197 | 35.30540 | 7065 ft | 360 kts | 188° |
| 2026-05-04 23:24 | 34.03803 | 35.29887 | 6361 ft | 348 kts | 204° |
| 2026-05-04 23:24 | 34.01783 | 35.28508 | 5607 ft | 323 kts | 219° |
| 2026-05-04 23:24 | 34.00257 | 35.26700 | 5111 ft | 299 kts | 228° |
| 2026-05-04 23:24 | 33.98849 | 35.25001 | 4973 ft | 268 kts | 224° |
| 2026-05-04 23:25 | 33.97504 | 35.23607 | 4806 ft | 245 kts | 220° |
| 2026-05-04 23:25 | 33.96268 | 35.22478 | 4690 ft | 243 kts | 217° |
| 2026-05-04 23:25 | 33.94874 | 35.21358 | 4568 ft | 245 kts | 214° |
| 2026-05-04 23:25 | 33.93415 | 35.20347 | 4431 ft | 236 kts | 210° |
| 2026-05-04 23:26 | 33.91975 | 35.19488 | 4296 ft | 227 kts | 207° |
| 2026-05-04 23:26 | 33.90540 | 35.18748 | 4066 ft | 223 kts | 204° |
| 2026-05-04 23:26 | 33.89088 | 35.18115 | 3961 ft | 223 kts | 201° |
| 2026-05-04 23:26 | 33.87523 | 35.17552 | 3860 ft | 242 kts | 198° |
| 2026-05-04 23:27 | 33.85862 | 35.17094 | 3757 ft | 246 kts | 194° |
| 2026-05-04 23:27 | 33.84164 | 35.16765 | 3659 ft | 248 kts | 191° |
| 2026-05-04 23:27 | 33.82447 | 35.16567 | 3561 ft | 249 kts | 188° |
| 2026-05-04 23:27 | 33.80711 | 35.16508 | 3454 ft | 249 kts | 184° |
| 2026-05-04 23:28 | 33.78977 | 35.16591 | 3355 ft | 250 kts | 180° |
| 2026-05-04 23:28 | 33.77240 | 35.16810 | 3256 ft | 252 kts | 176° |
| 2026-05-04 23:28 | 33.75507 | 35.17162 | 3157 ft | 253 kts | 173° |
| 2026-05-04 23:28 | 33.73790 | 35.17646 | 3050 ft | 254 kts | 169° |
| 2026-05-04 23:29 | 33.72100 | 35.18269 | 2945 ft | 254 kts | 165° |
| 2026-05-04 23:29 | 33.70446 | 35.19029 | 2847 ft | 255 kts | 161° |
| 2026-05-04 23:29 | 33.68833 | 35.19925 | 2745 ft | 256 kts | 157° |
| 2026-05-04 23:29 | 33.67292 | 35.20939 | 2648 ft | 256 kts | 153° |
| 2026-05-04 23:30 | 33.65784 | 35.22086 | 2541 ft | 257 kts | 149° |
| 2026-05-04 23:30 | 33.64337 | 35.23350 | 2442 ft | 257 kts | 146° |
| 2026-05-04 23:30 | 33.62960 | 35.24737 | 2337 ft | 261 kts | 139° |
| 2026-05-04 23:30 | 33.61851 | 35.26476 | 2236 ft | 266 kts | 121° |
| 2026-05-04 23:31 | 33.61231 | 35.28575 | 2121 ft | 270 kts | 102° |
| 2026-05-04 23:31 | 33.61191 | 35.30828 | 2001 ft | 273 kts | 83° |
| 2026-05-04 23:31 | 33.61747 | 35.32949 | 1996 ft | 259 kts | 63° |
| 2026-05-04 23:31 | 33.62739 | 35.34653 | 1997 ft | 241 kts | 45° |
| 2026-05-04 23:32 | 33.63990 | 35.35877 | 2005 ft | 227 kts | 32° |
| 2026-05-04 23:32 | 33.65314 | 35.36892 | 2004 ft | 225 kts | 31° |
| 2026-05-04 23:32 | 33.66631 | 35.37906 | 2012 ft | 229 kts | 31° |
| 2026-05-04 23:32 | 33.68028 | 35.38982 | 2016 ft | 242 kts | 33° |
| 2026-05-04 23:33 | 33.69400 | 35.40040 | 1997 ft | 225 kts | 32° |
| 2026-05-04 23:33 | 33.70686 | 35.41033 | 2011 ft | 214 kts | 32° |
| 2026-05-04 23:33 | 33.71864 | 35.41943 | 1964 ft | 191 kts | 32° |
| 2026-05-04 23:33 | 33.72948 | 35.42778 | 1751 ft | 180 kts | 32° |
| 2026-05-04 23:34 | 33.73966 | 35.43564 | 1539 ft | 168 kts | 32° |
| 2026-05-04 23:34 | 33.74922 | 35.44302 | 1330 ft | 162 kts | 32° |
| 2026-05-04 23:34 | 33.75862 | 35.45028 | 1102 ft | 160 kts | 32° |
| 2026-05-04 23:34 | 33.76790 | 35.45749 | 898 ft | 157 kts | 34° |
| 2026-05-04 23:35 | 33.77695 | 35.46488 | 686 ft | 156 kts | 33° |
| 2026-05-04 23:35 | 33.78621 | 35.47164 | 477 ft | 156 kts | 30° |
| 2026-05-04 23:35 | 33.79537 | 35.47883 | 276 ft | 157 kts | 32° |
| 2026-05-04 23:35 | 33.80454 | 35.48576 | 150 ft | 155 kts | 31° |
| 2026-05-04 23:36 | 33.81335 | 35.49258 | 95 ft | 137 kts | 32° |
| 2026-05-04 23:36 | 33.81893 | 35.49690 | 91 ft | 52 kts | 32° |
| 2026-05-04 23:36 | 33.82069 | 35.49828 | 94 ft | 28 kts | 32° |
| 2026-05-04 23:36 | 33.82244 | 35.49960 | 92 ft | 34 kts | 32° |
| 2026-05-04 23:37 | 33.82432 | 35.50097 | 98 ft | 18 kts | 7° |
| 2026-05-04 23:37 | 33.82491 | 35.50058 | 98 ft | 4 kts | 298° |
| 2026-05-04 23:37 | 33.82504 | 35.50032 | 95 ft | 6 kts | 302° |
| 2026-05-04 23:37 | 33.82535 | 35.49982 | 92 ft | 6 kts | 307° |
| 2026-05-04 23:38 | 33.82556 | 35.49948 | 97 ft | 4 kts | 306° |
| 2026-05-04 23:38 | 33.82563 | 35.49931 | 97 ft | 0 kts | 275° |
| 2026-05-04 23:38 | 33.82529 | 35.49902 | 100 ft | 15 kts | 216° |
| 2026-05-04 23:38 | 33.82399 | 35.49788 | 94 ft | 28 kts | 215° |
| 2026-05-04 23:39 | 33.82252 | 35.49664 | 94 ft | 22 kts | 215° |
| 2026-05-04 23:39 | 33.82233 | 35.49550 | 90 ft | 10 kts | 321° |
| 2026-05-04 23:39 | 33.82255 | 35.49512 | 98 ft | 0 kts | 302° |
| 2026-05-04 23:40 | 33.82273 | 35.49479 | 93 ft | 8 kts | 304° |
| 2026-05-04 23:40 | 33.82302 | 35.49438 | 92 ft | 5 kts | 312° |
| 2026-05-04 23:40 | 33.82315 | 35.49420 | 96 ft | 1 kts | 311° |
| 2026-05-04 23:40 | 33.82320 | 35.49413 | 94 ft | 0 kts | 311° |